CFG7LC EDDF-LEPA
Flight info
| Callsign | CFG7LC |
|---|---|
| Flight time | 1h 53m |
| Altitude | 34000 |
| Route | ANEKI2L/18 ANEKI Y163 HERBI Y164 MOPAN DCT LUTIX DCT BENOT DCT NEMOS DCT GEVEA DCT INCUS DCT BALSI DCT RETNO DCT TUPOX DCT MTG DCT DIVKO DCT VATIR DCT PIVUS N852 VERSO L129 LUNIK |
| Aircraft | A321/M-SDE3FGHIRWY/LB1 |
Departure
| Time | 2026-05-04 14:26 |
|---|---|
| Airport | Frankfurt Main Airport (EDDF) |
Arrival
| Time | 2026-05-04 16:20 |
|---|---|
| Airport | Palma de Mallorca Airport (LEPA) |
| Time | Latitude | Longitude | Altitude | Speed | Heading |
|---|---|---|---|---|---|
| 2026-05-04 13:59 | 50.04468 | 8.56484 | 363 ft | 0 kts | 159° |
| 2026-05-04 14:14 | 50.04473 | 8.56481 | 364 ft | 4 kts | 159° |
| 2026-05-04 14:14 | 50.04498 | 8.56466 | 362 ft | 4 kts | 162° |
| 2026-05-04 14:15 | 50.04535 | 8.56464 | 362 ft | 4 kts | 244° |
| 2026-05-04 14:15 | 50.04522 | 8.56407 | 358 ft | 4 kts | 249° |
| 2026-05-04 14:16 | 50.04518 | 8.56387 | 356 ft | 0 kts | 249° |
| 2026-05-04 14:19 | 50.04489 | 8.56267 | 357 ft | 11 kts | 250° |
| 2026-05-04 14:19 | 50.04464 | 8.56162 | 359 ft | 10 kts | 249° |
| 2026-05-04 14:19 | 50.04440 | 8.56067 | 363 ft | 9 kts | 243° |
| 2026-05-04 14:19 | 50.04361 | 8.56046 | 360 ft | 16 kts | 158° |
| 2026-05-04 14:20 | 50.04268 | 8.56038 | 363 ft | 14 kts | 226° |
| 2026-05-04 14:20 | 50.04230 | 8.55900 | 356 ft | 14 kts | 249° |
| 2026-05-04 14:20 | 50.04196 | 8.55759 | 358 ft | 14 kts | 249° |
| 2026-05-04 14:21 | 50.04131 | 8.55486 | 356 ft | 13 kts | 249° |
| 2026-05-04 14:21 | 50.04099 | 8.55355 | 354 ft | 15 kts | 249° |
| 2026-05-04 14:21 | 50.04050 | 8.55151 | 360 ft | 22 kts | 249° |
| 2026-05-04 14:21 | 50.04000 | 8.54939 | 355 ft | 20 kts | 250° |
| 2026-05-04 14:22 | 50.03950 | 8.54729 | 358 ft | 21 kts | 249° |
| 2026-05-04 14:22 | 50.03902 | 8.54528 | 353 ft | 20 kts | 248° |
| 2026-05-04 14:22 | 50.03849 | 8.54345 | 353 ft | 18 kts | 239° |
| 2026-05-04 14:22 | 50.03791 | 8.54176 | 351 ft | 17 kts | 246° |
| 2026-05-04 14:23 | 50.03708 | 8.53839 | 343 ft | 16 kts | 249° |
| 2026-05-04 14:23 | 50.03668 | 8.53673 | 343 ft | 16 kts | 249° |
| 2026-05-04 14:23 | 50.03626 | 8.53511 | 340 ft | 16 kts | 250° |
| 2026-05-04 14:24 | 50.03585 | 8.53337 | 335 ft | 20 kts | 249° |
| 2026-05-04 14:24 | 50.03536 | 8.53135 | 338 ft | 20 kts | 250° |
| 2026-05-04 14:24 | 50.03490 | 8.52940 | 332 ft | 19 kts | 249° |
| 2026-05-04 14:24 | 50.03441 | 8.52756 | 333 ft | 17 kts | 247° |
| 2026-05-04 14:25 | 50.03405 | 8.52621 | 330 ft | 12 kts | 239° |
| 2026-05-04 14:25 | 50.03327 | 8.52595 | 334 ft | 18 kts | 178° |
| 2026-05-04 14:25 | 50.02959 | 8.52598 | 336 ft | 85 kts | 179° |
| 2026-05-04 14:26 | 50.02182 | 8.52604 | 334 ft | 135 kts | 179° |
| 2026-05-04 14:26 | 50.01104 | 8.52615 | 335 ft | 173 kts | 179° |
| 2026-05-04 14:26 | 49.99882 | 8.52634 | 806 ft | 172 kts | 179° |
| 2026-05-04 14:26 | 49.98712 | 8.52687 | 1455 ft | 167 kts | 181° |
| 2026-05-04 14:27 | 49.97518 | 8.52788 | 1810 ft | 179 kts | 180° |
| 2026-05-04 14:27 | 49.96200 | 8.52889 | 1973 ft | 200 kts | 182° |
| 2026-05-04 14:27 | 49.94770 | 8.52987 | 2103 ft | 215 kts | 180° |
| 2026-05-04 14:27 | 49.93248 | 8.53093 | 2326 ft | 223 kts | 181° |
| 2026-05-04 14:28 | 49.91670 | 8.53205 | 2772 ft | 228 kts | 180° |
| 2026-05-04 14:28 | 49.90083 | 8.53318 | 3369 ft | 230 kts | 180° |
| 2026-05-04 14:28 | 49.88467 | 8.53431 | 3956 ft | 232 kts | 180° |
| 2026-05-04 14:28 | 49.86838 | 8.53544 | 4516 ft | 236 kts | 180° |
| 2026-05-04 14:29 | 49.83553 | 8.53774 | 5754 ft | 234 kts | 179° |
| 2026-05-04 14:29 | 49.80347 | 8.53998 | 6991 ft | 232 kts | 178° |
| 2026-05-04 14:30 | 49.78730 | 8.54108 | 7565 ft | 232 kts | 178° |
| 2026-05-04 14:30 | 49.77111 | 8.54018 | 8048 ft | 237 kts | 185° |
| 2026-05-04 14:30 | 49.73592 | 8.53552 | 8791 ft | 265 kts | 185° |
| 2026-05-04 14:31 | 49.71745 | 8.53308 | 9494 ft | 267 kts | 185° |
| 2026-05-04 14:31 | 49.67943 | 8.52802 | 10384 ft | 291 kts | 186° |
| 2026-05-04 14:32 | 49.63597 | 8.52219 | 10749 ft | 329 kts | 185° |
| 2026-05-04 14:32 | 49.61299 | 8.51913 | 11285 ft | 334 kts | 186° |
| 2026-05-04 14:32 | 49.58963 | 8.51605 | 11878 ft | 339 kts | 186° |
| 2026-05-04 14:32 | 49.56601 | 8.51292 | 12470 ft | 343 kts | 186° |
| 2026-05-04 14:33 | 49.54200 | 8.50974 | 12877 ft | 347 kts | 186° |
| 2026-05-04 14:33 | 49.51823 | 8.50662 | 13300 ft | 350 kts | 186° |
| 2026-05-04 14:33 | 49.49349 | 8.50338 | 13919 ft | 353 kts | 186° |
| 2026-05-04 14:33 | 49.46920 | 8.50023 | 14467 ft | 356 kts | 186° |
| 2026-05-04 14:34 | 49.44438 | 8.49702 | 15027 ft | 359 kts | 186° |
| 2026-05-04 14:34 | 49.41940 | 8.49376 | 15566 ft | 362 kts | 187° |
| 2026-05-04 14:34 | 49.39421 | 8.49048 | 16105 ft | 365 kts | 187° |
| 2026-05-04 14:34 | 49.36880 | 8.48718 | 16645 ft | 367 kts | 187° |
| 2026-05-04 14:35 | 49.34320 | 8.48383 | 17178 ft | 370 kts | 187° |
| 2026-05-04 14:35 | 49.31741 | 8.48048 | 17714 ft | 373 kts | 187° |
| 2026-05-04 14:35 | 49.29150 | 8.47712 | 18216 ft | 376 kts | 187° |
| 2026-05-04 14:35 | 49.26525 | 8.47371 | 18654 ft | 379 kts | 187° |
| 2026-05-04 14:36 | 49.23896 | 8.47027 | 19096 ft | 381 kts | 187° |
| 2026-05-04 14:36 | 49.21252 | 8.46681 | 19543 ft | 382 kts | 187° |
| 2026-05-04 14:36 | 49.18585 | 8.46333 | 19976 ft | 385 kts | 187° |
| 2026-05-04 14:36 | 49.15913 | 8.45985 | 20394 ft | 387 kts | 187° |
| 2026-05-04 14:37 | 49.13222 | 8.45635 | 20816 ft | 389 kts | 187° |
| 2026-05-04 14:37 | 49.10538 | 8.45288 | 21245 ft | 392 kts | 187° |
| 2026-05-04 14:37 | 49.07813 | 8.44937 | 21678 ft | 394 kts | 187° |
| 2026-05-04 14:37 | 49.05099 | 8.44324 | 22075 ft | 394 kts | 194° |
| 2026-05-04 14:38 | 49.02415 | 8.43381 | 22497 ft | 396 kts | 194° |
| 2026-05-04 14:38 | 48.99716 | 8.42436 | 22895 ft | 399 kts | 194° |
| 2026-05-04 14:38 | 48.97003 | 8.41488 | 23301 ft | 402 kts | 194° |
| 2026-05-04 14:38 | 48.94269 | 8.40533 | 23666 ft | 404 kts | 194° |
| 2026-05-04 14:39 | 48.91517 | 8.39575 | 24021 ft | 406 kts | 194° |
| 2026-05-04 14:39 | 48.88777 | 8.38524 | 24396 ft | 406 kts | 201° |
| 2026-05-04 14:39 | 48.88035 | 8.38105 | 24505 ft | 406 kts | 202° |
| 2026-05-04 14:40 | 48.84012 | 8.35669 | 25087 ft | 408 kts | 203° |
| 2026-05-04 14:40 | 48.81363 | 8.34054 | 25446 ft | 409 kts | 203° |
| 2026-05-04 14:40 | 48.78716 | 8.32440 | 25799 ft | 410 kts | 203° |
| 2026-05-04 14:40 | 48.76063 | 8.30824 | 26124 ft | 412 kts | 202° |
| 2026-05-04 14:41 | 48.73399 | 8.29202 | 26458 ft | 413 kts | 202° |
| 2026-05-04 14:41 | 48.70731 | 8.27579 | 26791 ft | 414 kts | 202° |
| 2026-05-04 14:41 | 48.65360 | 8.24324 | 27446 ft | 417 kts | 202° |
| 2026-05-04 14:42 | 48.59954 | 8.21058 | 28038 ft | 420 kts | 202° |
| 2026-05-04 14:42 | 48.57236 | 8.19415 | 28359 ft | 421 kts | 202° |
| 2026-05-04 14:42 | 48.54547 | 8.17796 | 28674 ft | 422 kts | 202° |
| 2026-05-04 14:43 | 48.51777 | 8.16131 | 28983 ft | 424 kts | 202° |
| 2026-05-04 14:43 | 48.49067 | 8.14498 | 29290 ft | 425 kts | 202° |
| 2026-05-04 14:43 | 48.46326 | 8.12848 | 29641 ft | 424 kts | 202° |
| 2026-05-04 14:43 | 48.43582 | 8.11204 | 30042 ft | 423 kts | 202° |
| 2026-05-04 14:44 | 48.40850 | 8.09572 | 30385 ft | 421 kts | 202° |
| 2026-05-04 14:44 | 48.38123 | 8.07949 | 30716 ft | 420 kts | 202° |
| 2026-05-04 14:44 | 48.35403 | 8.06335 | 31027 ft | 420 kts | 202° |
| 2026-05-04 14:44 | 48.32685 | 8.04719 | 31352 ft | 420 kts | 202° |
| 2026-05-04 14:45 | 48.29972 | 8.03098 | 31666 ft | 419 kts | 202° |
| 2026-05-04 14:45 | 48.27260 | 8.01480 | 31992 ft | 419 kts | 203° |
| 2026-05-04 14:45 | 48.24555 | 7.99868 | 32322 ft | 418 kts | 203° |
| 2026-05-04 14:45 | 48.21853 | 7.98262 | 32648 ft | 417 kts | 203° |
| 2026-05-04 14:46 | 48.19154 | 7.96660 | 32987 ft | 416 kts | 203° |
| 2026-05-04 14:46 | 48.16466 | 7.95065 | 33313 ft | 415 kts | 203° |
| 2026-05-04 14:46 | 48.13779 | 7.93472 | 33644 ft | 415 kts | 203° |
| 2026-05-04 14:46 | 48.11130 | 7.91904 | 33932 ft | 415 kts | 203° |
| 2026-05-04 14:47 | 48.05795 | 7.88761 | 33996 ft | 409 kts | 203° |
| 2026-05-04 14:47 | 48.00509 | 7.85648 | 33994 ft | 408 kts | 203° |
| 2026-05-04 14:48 | 47.95221 | 7.82538 | 33987 ft | 408 kts | 203° |
| 2026-05-04 14:48 | 47.89937 | 7.79440 | 33991 ft | 408 kts | 203° |
| 2026-05-04 14:49 | 47.84650 | 7.76342 | 33990 ft | 408 kts | 203° |
| 2026-05-04 14:49 | 47.79362 | 7.73249 | 33993 ft | 408 kts | 203° |
| 2026-05-04 14:50 | 47.74072 | 7.70166 | 33991 ft | 408 kts | 203° |
| 2026-05-04 14:50 | 47.68781 | 7.67096 | 33993 ft | 408 kts | 203° |
| 2026-05-04 14:51 | 47.63511 | 7.64043 | 33994 ft | 409 kts | 203° |
| 2026-05-04 14:51 | 47.58211 | 7.60969 | 33994 ft | 409 kts | 203° |
| 2026-05-04 14:52 | 47.52915 | 7.57907 | 33996 ft | 409 kts | 202° |
| 2026-05-04 14:52 | 47.47618 | 7.54853 | 33997 ft | 408 kts | 202° |
| 2026-05-04 14:53 | 47.42321 | 7.51813 | 33996 ft | 408 kts | 202° |
| 2026-05-04 14:53 | 47.37037 | 7.48781 | 34037 ft | 407 kts | 202° |
| 2026-05-04 14:54 | 47.31763 | 7.45751 | 34027 ft | 406 kts | 202° |
| 2026-05-04 14:54 | 47.26527 | 7.42754 | 34031 ft | 406 kts | 202° |
| 2026-05-04 14:55 | 47.21254 | 7.39755 | 34033 ft | 407 kts | 202° |
| 2026-05-04 14:55 | 47.16330 | 7.35787 | 34031 ft | 405 kts | 219° |
| 2026-05-04 14:56 | 47.12514 | 7.29690 | 34024 ft | 406 kts | 230° |
| 2026-05-04 14:56 | 47.08985 | 7.23192 | 34014 ft | 407 kts | 230° |
| 2026-05-04 14:57 | 47.05451 | 7.16710 | 34028 ft | 407 kts | 230° |
| 2026-05-04 14:57 | 47.01919 | 7.10231 | 34045 ft | 407 kts | 230° |
| 2026-05-04 14:58 | 46.98378 | 7.03749 | 34058 ft | 407 kts | 230° |
| 2026-05-04 14:58 | 46.95431 | 6.98370 | 34066 ft | 407 kts | 230° |
| 2026-05-04 14:59 | 46.91256 | 6.90939 | 34107 ft | 405 kts | 224° |
| 2026-05-04 15:00 | 46.84811 | 6.83036 | 34098 ft | 402 kts | 218° |
| 2026-05-04 15:00 | 46.81177 | 6.78716 | 34095 ft | 402 kts | 218° |
| 2026-05-04 15:01 | 46.74679 | 6.70991 | 34067 ft | 402 kts | 219° |
| 2026-05-04 15:01 | 46.70368 | 6.65891 | 34059 ft | 402 kts | 219° |
| 2026-05-04 15:02 | 46.66026 | 6.60756 | 34051 ft | 402 kts | 219° |
| 2026-05-04 15:02 | 46.61686 | 6.55625 | 34043 ft | 402 kts | 219° |
| 2026-05-04 15:03 | 46.57340 | 6.50503 | 34046 ft | 402 kts | 218° |
| 2026-05-04 15:03 | 46.52992 | 6.45392 | 34080 ft | 402 kts | 218° |
| 2026-05-04 15:04 | 46.48647 | 6.40296 | 34086 ft | 400 kts | 218° |
| 2026-05-04 15:04 | 46.44315 | 6.35233 | 34083 ft | 399 kts | 218° |
| 2026-05-04 15:05 | 46.39996 | 6.30196 | 34092 ft | 398 kts | 218° |
| 2026-05-04 15:05 | 46.35700 | 6.25188 | 34090 ft | 398 kts | 219° |
| 2026-05-04 15:06 | 46.31384 | 6.20176 | 34091 ft | 398 kts | 219° |
| 2026-05-04 15:07 | 46.24505 | 6.13540 | 34091 ft | 399 kts | 202° |
| 2026-05-04 15:07 | 46.19069 | 6.11807 | 34081 ft | 402 kts | 192° |
| 2026-05-04 15:08 | 46.13525 | 6.10592 | 34074 ft | 403 kts | 192° |
| 2026-05-04 15:08 | 46.08023 | 6.09367 | 34052 ft | 403 kts | 192° |
| 2026-05-04 15:09 | 46.02474 | 6.08130 | 34055 ft | 403 kts | 192° |
| 2026-05-04 15:09 | 45.96923 | 6.06895 | 34032 ft | 404 kts | 192° |
| 2026-05-04 15:10 | 45.88572 | 6.05051 | 34037 ft | 405 kts | 192° |
| 2026-05-04 15:11 | 45.80199 | 6.03224 | 34034 ft | 406 kts | 193° |
| 2026-05-04 15:11 | 45.74614 | 6.01984 | 34037 ft | 406 kts | 193° |
| 2026-05-04 15:12 | 45.69020 | 6.00735 | 34034 ft | 407 kts | 192° |
| 2026-05-04 15:12 | 45.63427 | 5.99505 | 34041 ft | 407 kts | 193° |
| 2026-05-04 15:13 | 45.57860 | 5.98290 | 34037 ft | 407 kts | 193° |
| 2026-05-04 15:13 | 45.52254 | 5.97072 | 34038 ft | 407 kts | 193° |
| 2026-05-04 15:14 | 45.46647 | 5.95828 | 34037 ft | 407 kts | 194° |
| 2026-05-04 15:14 | 45.41107 | 5.94182 | 34031 ft | 405 kts | 197° |
| 2026-05-04 15:15 | 45.35626 | 5.92336 | 34016 ft | 405 kts | 197° |
| 2026-05-04 15:15 | 45.30138 | 5.90552 | 34022 ft | 405 kts | 197° |
| 2026-05-04 15:16 | 45.24584 | 5.88827 | 34350 ft | 410 kts | 197° |
| 2026-05-04 15:16 | 45.21794 | 5.87970 | 34585 ft | 410 kts | 197° |
| 2026-05-04 15:16 | 45.16212 | 5.86260 | 35083 ft | 410 kts | 197° |
| 2026-05-04 15:17 | 45.13428 | 5.85401 | 35341 ft | 410 kts | 197° |
| 2026-05-04 15:17 | 45.07878 | 5.83686 | 35828 ft | 410 kts | 197° |
| 2026-05-04 15:17 | 45.05089 | 5.82824 | 36001 ft | 410 kts | 197° |
| 2026-05-04 15:18 | 44.99513 | 5.81099 | 36017 ft | 409 kts | 197° |
| 2026-05-04 15:19 | 44.91188 | 5.78538 | 36018 ft | 408 kts | 197° |
| 2026-05-04 15:19 | 44.82906 | 5.76007 | 36020 ft | 407 kts | 197° |
| 2026-05-04 15:20 | 44.77375 | 5.74310 | 36024 ft | 406 kts | 197° |
| 2026-05-04 15:20 | 44.71856 | 5.72615 | 36025 ft | 406 kts | 197° |
| 2026-05-04 15:21 | 44.66335 | 5.70930 | 36053 ft | 406 kts | 197° |
| 2026-05-04 15:22 | 44.58044 | 5.68416 | 36043 ft | 406 kts | 197° |
| 2026-05-04 15:22 | 44.49758 | 5.65912 | 36035 ft | 406 kts | 197° |
| 2026-05-04 15:23 | 44.44234 | 5.64244 | 36039 ft | 406 kts | 197° |
| 2026-05-04 15:23 | 44.38710 | 5.62558 | 36037 ft | 404 kts | 200° |
| 2026-05-04 15:24 | 44.28339 | 5.57046 | 36027 ft | 400 kts | 206° |
| 2026-05-04 15:25 | 44.23166 | 5.54220 | 36038 ft | 399 kts | 205° |
| 2026-05-04 15:26 | 44.15410 | 5.49999 | 36045 ft | 398 kts | 205° |
| 2026-05-04 15:26 | 44.07668 | 5.45785 | 36027 ft | 398 kts | 205° |
| 2026-05-04 15:27 | 43.99936 | 5.41579 | 36036 ft | 397 kts | 205° |
| 2026-05-04 15:28 | 43.92205 | 5.37400 | 36036 ft | 397 kts | 205° |
| 2026-05-04 15:29 | 43.84530 | 5.33256 | 36035 ft | 396 kts | 205° |
| 2026-05-04 15:30 | 43.66571 | 5.23589 | 36036 ft | 395 kts | 205° |
| 2026-05-04 15:31 | 43.58886 | 5.19471 | 36014 ft | 394 kts | 205° |
| 2026-05-04 15:32 | 43.46095 | 5.12648 | 36011 ft | 393 kts | 205° |
| 2026-05-04 15:34 | 43.34048 | 5.04348 | 36007 ft | 387 kts | 217° |
| 2026-05-04 15:34 | 43.27394 | 4.98084 | 35991 ft | 386 kts | 217° |
| 2026-05-04 15:35 | 43.20753 | 4.91861 | 36004 ft | 385 kts | 217° |
| 2026-05-04 15:36 | 43.14112 | 4.85635 | 35981 ft | 386 kts | 217° |
| 2026-05-04 15:36 | 43.09684 | 4.81496 | 35960 ft | 385 kts | 217° |
| 2026-05-04 15:37 | 43.05268 | 4.77435 | 35959 ft | 386 kts | 213° |
| 2026-05-04 15:37 | 43.00578 | 4.73872 | 35960 ft | 386 kts | 212° |
| 2026-05-04 15:38 | 42.95889 | 4.70321 | 35950 ft | 385 kts | 212° |
| 2026-05-04 15:38 | 42.91199 | 4.66767 | 35929 ft | 385 kts | 212° |
| 2026-05-04 15:39 | 42.86515 | 4.63221 | 35933 ft | 385 kts | 212° |
| 2026-05-04 15:40 | 42.79472 | 4.57912 | 35940 ft | 385 kts | 212° |
| 2026-05-04 15:40 | 42.74812 | 4.54395 | 35941 ft | 386 kts | 212° |
| 2026-05-04 15:41 | 42.70108 | 4.50859 | 35935 ft | 387 kts | 212° |
| 2026-05-04 15:41 | 42.65390 | 4.47324 | 35933 ft | 387 kts | 212° |
| 2026-05-04 15:42 | 42.60667 | 4.43790 | 35927 ft | 387 kts | 212° |
| 2026-05-04 15:42 | 42.55943 | 4.40267 | 35924 ft | 387 kts | 212° |
| 2026-05-04 15:43 | 42.51216 | 4.36737 | 35918 ft | 387 kts | 212° |
| 2026-05-04 15:43 | 42.46499 | 4.33216 | 35925 ft | 387 kts | 212° |
| 2026-05-04 15:44 | 42.41781 | 4.29704 | 35926 ft | 387 kts | 212° |
| 2026-05-04 15:44 | 42.37095 | 4.26236 | 35925 ft | 387 kts | 212° |
| 2026-05-04 15:45 | 42.32367 | 4.22740 | 35915 ft | 387 kts | 212° |
| 2026-05-04 15:45 | 42.27653 | 4.19252 | 35951 ft | 386 kts | 212° |
| 2026-05-04 15:46 | 42.23735 | 4.16359 | 35948 ft | 385 kts | 212° |
| 2026-05-04 15:46 | 42.19031 | 4.12895 | 35948 ft | 384 kts | 212° |
| 2026-05-04 15:47 | 42.14342 | 4.09438 | 35940 ft | 384 kts | 212° |
| 2026-05-04 15:47 | 42.09654 | 4.06001 | 35924 ft | 383 kts | 212° |
| 2026-05-04 15:48 | 42.04971 | 4.02570 | 35926 ft | 383 kts | 212° |
| 2026-05-04 15:48 | 41.97948 | 3.97430 | 35927 ft | 383 kts | 212° |
| 2026-05-04 15:49 | 41.93236 | 3.94087 | 35931 ft | 385 kts | 207° |
| 2026-05-04 15:49 | 41.87989 | 3.92331 | 35908 ft | 392 kts | 195° |
| 2026-05-04 15:50 | 41.82606 | 3.91102 | 35907 ft | 392 kts | 195° |
| 2026-05-04 15:50 | 41.77222 | 3.89868 | 35913 ft | 392 kts | 195° |
| 2026-05-04 15:51 | 41.71874 | 3.88636 | 35915 ft | 392 kts | 195° |
| 2026-05-04 15:51 | 41.66488 | 3.87397 | 35909 ft | 392 kts | 195° |
| 2026-05-04 15:52 | 41.61100 | 3.86161 | 35922 ft | 393 kts | 195° |
| 2026-05-04 15:52 | 41.55715 | 3.84922 | 35927 ft | 393 kts | 195° |
| 2026-05-04 15:53 | 41.50325 | 3.83686 | 35927 ft | 393 kts | 195° |
| 2026-05-04 15:53 | 41.44941 | 3.82449 | 35911 ft | 392 kts | 195° |
| 2026-05-04 15:54 | 41.39555 | 3.81215 | 35925 ft | 392 kts | 195° |
| 2026-05-04 15:54 | 41.34162 | 3.79988 | 35939 ft | 393 kts | 195° |
| 2026-05-04 15:55 | 41.28811 | 3.78771 | 35933 ft | 393 kts | 195° |
| 2026-05-04 15:55 | 41.23412 | 3.77542 | 35924 ft | 393 kts | 195° |
| 2026-05-04 15:56 | 41.18019 | 3.76321 | 35923 ft | 393 kts | 195° |
| 2026-05-04 15:56 | 41.12821 | 3.74421 | 35926 ft | 385 kts | 206° |
| 2026-05-04 15:57 | 41.07824 | 3.71824 | 35926 ft | 386 kts | 206° |
| 2026-05-04 15:57 | 41.02815 | 3.69254 | 35914 ft | 386 kts | 206° |
| 2026-05-04 15:58 | 40.97813 | 3.66690 | 35547 ft | 387 kts | 206° |
| 2026-05-04 15:58 | 40.95271 | 3.65382 | 34503 ft | 397 kts | 205° |
| 2026-05-04 15:58 | 40.92714 | 3.64066 | 33640 ft | 400 kts | 205° |
| 2026-05-04 15:59 | 40.90118 | 3.62732 | 32871 ft | 400 kts | 205° |
| 2026-05-04 15:59 | 40.87522 | 3.61404 | 32099 ft | 401 kts | 205° |
| 2026-05-04 15:59 | 40.84917 | 3.60073 | 31270 ft | 402 kts | 205° |
| 2026-05-04 15:59 | 40.82325 | 3.58754 | 30831 ft | 396 kts | 205° |
| 2026-05-04 16:00 | 40.79764 | 3.57453 | 30322 ft | 391 kts | 205° |
| 2026-05-04 16:00 | 40.77232 | 3.56165 | 29794 ft | 387 kts | 205° |
| 2026-05-04 16:00 | 40.74741 | 3.54892 | 29267 ft | 381 kts | 205° |
| 2026-05-04 16:00 | 40.72288 | 3.53638 | 28773 ft | 375 kts | 205° |
| 2026-05-04 16:01 | 40.69873 | 3.52401 | 28302 ft | 370 kts | 205° |
| 2026-05-04 16:01 | 40.67494 | 3.51183 | 27839 ft | 364 kts | 205° |
| 2026-05-04 16:01 | 40.65147 | 3.49984 | 27375 ft | 360 kts | 205° |
| 2026-05-04 16:01 | 40.62855 | 3.48816 | 26922 ft | 355 kts | 205° |
| 2026-05-04 16:02 | 40.60533 | 3.47639 | 26469 ft | 350 kts | 205° |
| 2026-05-04 16:02 | 40.58303 | 3.46512 | 26037 ft | 346 kts | 205° |
| 2026-05-04 16:02 | 40.53828 | 3.44255 | 25175 ft | 339 kts | 206° |
| 2026-05-04 16:03 | 40.51635 | 3.43144 | 24759 ft | 338 kts | 206° |
| 2026-05-04 16:03 | 40.49442 | 3.42032 | 24349 ft | 337 kts | 206° |
| 2026-05-04 16:03 | 40.47262 | 3.40922 | 23951 ft | 336 kts | 206° |
| 2026-05-04 16:03 | 40.45049 | 3.39915 | 23547 ft | 339 kts | 200° |
| 2026-05-04 16:04 | 40.42708 | 3.39416 | 23072 ft | 344 kts | 189° |
| 2026-05-04 16:04 | 40.37916 | 3.39616 | 22204 ft | 346 kts | 184° |
| 2026-05-04 16:04 | 40.35487 | 3.39757 | 21777 ft | 344 kts | 184° |
| 2026-05-04 16:05 | 40.33140 | 3.39887 | 21364 ft | 343 kts | 184° |
| 2026-05-04 16:05 | 40.30761 | 3.40015 | 20943 ft | 341 kts | 184° |
| 2026-05-04 16:05 | 40.26038 | 3.40269 | 20093 ft | 338 kts | 183° |
| 2026-05-04 16:06 | 40.23692 | 3.40402 | 19664 ft | 337 kts | 183° |
| 2026-05-04 16:06 | 40.17455 | 3.40762 | 18505 ft | 334 kts | 182° |
| 2026-05-04 16:07 | 40.14392 | 3.40932 | 17892 ft | 332 kts | 182° |
| 2026-05-04 16:07 | 40.07562 | 3.41299 | 17119 ft | 334 kts | 185° |
| 2026-05-04 16:08 | 40.05281 | 3.40807 | 16260 ft | 333 kts | 205° |
| 2026-05-04 16:08 | 39.99628 | 3.35767 | 14001 ft | 321 kts | 217° |
| 2026-05-04 16:09 | 39.96059 | 3.32400 | 12642 ft | 313 kts | 217° |
| 2026-05-04 16:09 | 39.92567 | 3.29118 | 11285 ft | 306 kts | 217° |
| 2026-05-04 16:10 | 39.89167 | 3.25924 | 9688 ft | 297 kts | 217° |
| 2026-05-04 16:11 | 39.84256 | 3.21303 | 8461 ft | 277 kts | 217° |
| 2026-05-04 16:11 | 39.82760 | 3.19897 | 8268 ft | 269 kts | 217° |
| 2026-05-04 16:12 | 39.78107 | 3.15539 | 6614 ft | 281 kts | 216° |
| 2026-05-04 16:12 | 39.73419 | 3.11158 | 5462 ft | 271 kts | 217° |
| 2026-05-04 16:13 | 39.70507 | 3.08204 | 4960 ft | 254 kts | 231° |
| 2026-05-04 16:13 | 39.68718 | 3.04366 | 4868 ft | 240 kts | 240° |
| 2026-05-04 16:14 | 39.67111 | 3.00764 | 4328 ft | 220 kts | 238° |
| 2026-05-04 16:14 | 39.65596 | 2.97535 | 3761 ft | 195 kts | 238° |
| 2026-05-04 16:15 | 39.63774 | 2.93653 | 3097 ft | 146 kts | 237° |
| 2026-05-04 16:16 | 39.62746 | 2.91466 | 2724 ft | 139 kts | 238° |
| 2026-05-04 16:16 | 39.61239 | 2.88262 | 2159 ft | 139 kts | 238° |
| 2026-05-04 16:17 | 39.60237 | 2.86131 | 1806 ft | 137 kts | 237° |
| 2026-05-04 16:18 | 39.58722 | 2.82984 | 1231 ft | 135 kts | 233° |
| 2026-05-04 16:18 | 39.58220 | 2.81926 | 1014 ft | 136 kts | 240° |
| 2026-05-04 16:19 | 39.56777 | 2.78811 | 578 ft | 134 kts | 238° |
| 2026-05-04 16:19 | 39.55802 | 2.76729 | 180 ft | 135 kts | 236° |
| 2026-05-04 16:20 | 39.54661 | 2.74307 | 38 ft | 46 kts | 237° |
| 2026-05-04 16:20 | 39.54553 | 2.73837 | 38 ft | 10 kts | 269° |
| 2026-05-04 16:21 | 39.54553 | 2.73818 | 38 ft | 0 kts | 270° |
| 2026-05-04 16:22 | 39.54645 | 2.73824 | 38 ft | 12 kts | 57° |
| 2026-05-04 16:23 | 39.54804 | 2.74118 | 38 ft | 15 kts | 21° |
| 2026-05-04 16:24 | 39.55141 | 2.73879 | 38 ft | 16 kts | 330° |
| 2026-05-04 16:25 | 39.55156 | 2.73646 | 37 ft | 14 kts | 236° |
| 2026-05-04 16:26 | 39.55042 | 2.73482 | 38 ft | 6 kts | 168° |
| 2026-05-04 16:26 | 39.55023 | 2.73488 | 38 ft | 0 kts | 165° |